Time;durP1;ratioP1;P1;durP2;ratioP2;P2;SDS_P1;SDS_P2;PMS_P1;PMS_P2;Temp;Humidity;BMP_temperature;BMP_pressure;BME280_temperature;BME280_humidity;BME280_pressure;Samples;Min_cycle;Max_cycle;Signal;HPM_P1;HPM_P2
2021/08/12 00:02:09;;;;;;;7.13;5.03;;;17.70;99.90;;;;;;5009162;28;20248;-49
2021/08/12 00:04:37;;;;;;;6.40;4.97;;;17.60;99.90;;;;;;5007968;28;20279;-49
2021/08/12 00:07:04;;;;;;;7.57;5.00;;;17.60;99.90;;;;;;5008599;28;20669;-49
2021/08/12 00:09:30;;;;;;;6.50;4.70;;;17.60;99.90;;;;;;5007868;28;20293;-49
2021/08/12 00:11:59;;;;;;;6.67;5.13;;;17.60;99.90;;;;;;5008580;28;20727;-49
2021/08/12 00:14:25;;;;;;;9.03;5.07;;;17.60;99.90;;;;;;5008526;28;20251;-48
2021/08/12 00:16:52;;;;;;;6.63;5.07;;;17.60;99.90;;;;;;5022977;28;20210;-49
2021/08/12 00:19:20;;;;;;;8.07;5.57;;;17.60;99.90;;;;;;5008061;28;20657;-49
2021/08/12 00:21:47;;;;;;;7.07;4.90;;;17.60;99.90;;;;;;5008653;28;20264;-49
2021/08/12 00:24:14;;;;;;;6.80;5.40;;;17.60;99.90;;;;;;5008932;28;20322;-49
2021/08/12 00:26:41;;;;;;;6.93;5.33;;;17.50;99.90;;;;;;5008084;28;20394;-49
2021/08/12 00:29:08;;;;;;;8.97;5.13;;;17.40;99.90;;;;;;5008098;28;20207;-49
2021/08/12 00:31:35;;;;;;;6.77;5.30;;;17.40;99.90;;;;;;5007887;28;20253;-48
2021/08/12 00:34:02;;;;;;;6.57;4.83;;;17.40;99.90;;;;;;5007958;28;20624;-49
2021/08/12 00:36:29;;;;;;;6.30;5.13;;;17.30;99.90;;;;;;5008041;28;20295;-49
2021/08/12 00:38:55;;;;;;;7.40;5.47;;;17.30;99.90;;;;;;5039248;28;20345;-49
2021/08/12 00:41:22;;;;;;;9.33;5.93;;;17.30;99.90;;;;;;5007828;28;20214;-49
2021/08/12 00:43:49;;;;;;;8.50;6.10;;;17.30;99.90;;;;;;5007835;28;20256;-49
2021/08/12 00:46:16;;;;;;;7.90;6.27;;;17.20;99.90;;;;;;5007999;28;20229;-48
2021/08/12 00:48:43;;;;;;;7.33;5.97;;;17.30;99.90;;;;;;5007490;28;20293;-49
2021/08/12 00:51:09;;;;;;;6.13;5.00;;;17.10;99.90;;;;;;5008221;28;20656;-49
2021/08/12 00:53:36;;;;;;;7.40;5.23;;;17.10;99.90;;;;;;5008488;28;20227;-49
2021/08/12 00:56:04;;;;;;;7.27;5.07;;;17.10;99.90;;;;;;5007846;28;20800;-48
2021/08/12 00:58:34;;;;;;;7.60;5.57;;;17.10;99.90;;;;;;5008296;28;20634;-48
2021/08/12 01:01:01;;;;;;;7.97;5.97;;;17.10;99.90;;;;;;5008154;28;20263;-48
2021/08/12 01:03:28;;;;;;;7.97;5.90;;;17.00;99.90;;;;;;5008144;28;20228;-48
2021/08/12 01:05:56;;;;;;;8.50;6.30;;;17.10;99.90;;;;;;5006897;28;20212;-48
2021/08/12 01:08:24;;;;;;;8.60;6.33;;;17.10;99.90;;;;;;5007753;28;20213;-48
2021/08/12 01:10:57;;;;;;;9.40;6.90;;;17.20;99.90;;;;;;5007958;28;20233;-48
2021/08/12 01:13:33;;;;;;;9.53;7.47;;;17.20;99.90;;;;;;5007852;28;20670;-48
2021/08/12 01:16:03;;;;;;;10.33;7.20;;;17.30;99.90;;;;;;5008000;28;20212;-48
2021/08/12 01:18:43;;;;;;;10.37;6.90;;;17.30;99.90;;;;;;5007130;28;20212;-48
2021/08/12 01:21:36;;;;;;;9.80;7.23;;;17.30;99.90;;;;;;5007633;28;20208;-48
2021/08/12 01:24:08;;;;;;;10.63;7.40;;;17.40;99.90;;;;;;5011115;28;20270;-48
2021/08/12 01:26:39;;;;;;;11.43;8.07;;;17.40;99.90;;;;;;5011283;28;20734;-48
2021/08/12 01:29:22;;;;;;;10.33;7.83;;;17.40;99.90;;;;;;5010864;28;20205;-48
2021/08/12 01:32:03;;;;;;;13.40;8.00;;;17.40;99.90;;;;;;5011195;28;20262;-48
2021/08/12 01:34:42;;;;;;;11.33;8.40;;;17.40;99.90;;;;;;5010845;28;20291;-49
2021/08/12 01:37:15;;;;;;;10.80;7.93;;;17.40;99.90;;;;;;5010756;28;20212;-49
2021/08/12 01:39:43;;;;;;;10.43;8.07;;;17.40;99.90;;;;;;5011024;28;20319;-48
2021/08/12 01:42:12;;;;;;;11.10;7.93;;;17.40;99.90;;;;;;5025072;28;20453;-48
2021/08/12 01:44:42;;;;;;;12.53;8.47;;;17.40;99.90;;;;;;5010366;28;20216;-48
2021/08/12 01:47:10;;;;;;;15.77;8.77;;;17.40;99.90;;;;;;5010913;28;20649;-49
2021/08/12 01:49:39;;;;;;;12.00;8.50;;;17.40;99.90;;;;;;5010640;28;20266;-48
2021/08/12 01:52:07;;;;;;;11.67;8.30;;;17.40;99.90;;;;;;5011383;28;20234;-48
2021/08/12 01:54:36;;;;;;;12.13;8.40;;;17.40;99.90;;;;;;5011033;28;20236;-48
2021/08/12 01:57:03;;;;;;;12.87;9.33;;;17.40;99.90;;;;;;5010672;28;20248;-48
2021/08/12 01:59:32;;;;;;;10.97;8.23;;;17.40;99.90;;;;;;5010471;28;20244;-48
2021/08/12 02:01:59;;;;;;;12.80;9.10;;;17.40;99.90;;;;;;5010471;28;20208;-48
2021/08/12 02:04:30;;;;;;;12.17;8.73;;;17.40;99.90;;;;;;5009872;28;20638;-49
2021/08/12 02:06:57;;;;;;;13.97;8.93;;;17.50;99.90;;;;;;5010496;28;20298;-49
2021/08/12 02:09:24;;;;;;;13.07;9.13;;;17.50;99.90;;;;;;5010684;28;20276;-48
2021/08/12 02:11:51;;;;;;;12.97;8.53;;;17.50;99.90;;;;;;5010200;28;20233;-48
2021/08/12 02:14:18;;;;;;;12.03;8.80;;;17.50;99.90;;;;;;5010322;28;20243;-49
2021/08/12 02:16:45;;;;;;;11.57;9.00;;;17.50;99.90;;;;;;5010326;28;20571;-49
2021/08/12 02:19:11;;;;;;;10.50;8.43;;;17.40;99.90;;;;;;5009703;28;20657;-49
2021/08/12 02:21:45;;;;;;;11.00;8.57;;;17.50;99.90;;;;;;5010257;28;20300;-49
2021/08/12 02:24:28;;;;;;;10.53;8.33;;;17.50;99.90;;;;;;5009913;28;20252;-49
2021/08/12 02:27:00;;;;;;;11.33;8.40;;;17.40;99.90;;;;;;5010788;28;20688;-49
2021/08/12 02:29:32;;;;;;;11.10;7.80;;;17.50;99.90;;;;;;5009922;28;20240;-48
2021/08/12 02:32:03;;;;;;;12.67;8.40;;;17.50;99.90;;;;;;5010167;28;20275;-49
2021/08/12 02:34:31;;;;;;;11.43;7.73;;;17.40;99.90;;;;;;5009094;28;20298;-49
2021/08/12 02:37:01;;;;;;;10.10;7.90;;;17.50;99.90;;;;;;5009867;28;20248;-49
2021/08/12 02:39:29;;;;;;;12.47;8.63;;;17.40;99.90;;;;;;5009224;28;20283;-49
2021/08/12 02:41:57;;;;;;;10.37;8.17;;;17.40;99.90;;;;;;5010885;28;20307;-48
2021/08/12 02:44:25;;;;;;;15.03;8.30;;;17.50;99.90;;;;;;5009733;28;20238;-48
2021/08/12 02:46:53;;;;;;;10.43;7.90;;;17.50;99.90;;;;;;5009480;28;20295;-49
2021/08/12 02:49:22;;;;;;;12.40;7.93;;;17.40;99.90;;;;;;5009198;28;20212;-49
2021/08/12 02:51:50;;;;;;;10.43;7.80;;;17.30;99.90;;;;;;5009892;28;20722;-49
2021/08/12 02:54:19;;;;;;;12.87;8.50;;;17.10;99.90;;;;;;5009591;28;20311;-48
2021/08/12 02:56:46;;;;;;;12.63;7.90;;;17.00;99.90;;;;;;5010185;28;20691;-48
2021/08/12 02:59:15;;;;;;;12.00;8.73;;;17.10;99.90;;;;;;5008908;28;20238;-49
2021/08/12 03:01:43;;;;;;;10.50;7.63;;;17.10;99.90;;;;;;5009739;28;20240;-49
2021/08/12 03:04:10;;;;;;;13.07;8.23;;;17.10;99.90;;;;;;5008950;28;20250;-49
2021/08/12 03:06:39;;;;;;;13.40;8.93;;;17.10;99.90;;;;;;5009434;28;20237;-49
2021/08/12 03:09:08;;;;;;;8.57;7.27;;;17.10;99.90;;;;;;5009204;28;20582;-49
2021/08/12 03:11:35;;;;;;;9.27;6.77;;;17.20;99.90;;;;;;5009206;28;20307;-48
2021/08/12 03:14:02;;;;;;;11.37;7.63;;;17.10;99.90;;;;;;5010200;28;20233;-48
2021/08/12 03:16:30;;;;;;;10.30;7.50;;;17.00;99.90;;;;;;5008829;28;20236;-49
2021/08/12 03:18:57;;;;;;;12.00;7.87;;;17.10;99.90;;;;;;5008717;28;20636;-48
2021/08/12 03:21:24;;;;;;;9.13;6.70;;;17.00;99.90;;;;;;5008918;28;20302;-49
2021/08/12 03:23:52;;;;;;;10.90;7.53;;;17.00;99.90;;;;;;5009419;28;20335;-49
2021/08/12 03:26:19;;;;;;;11.43;7.27;;;16.90;99.90;;;;;;5009160;28;20217;-49
2021/08/12 03:28:45;;;;;;;10.73;7.37;;;16.90;99.90;;;;;;5008625;28;20249;-48
2021/08/12 03:31:12;;;;;;;9.87;7.13;;;16.90;99.90;;;;;;5009270;28;20315;-49
2021/08/12 03:33:41;;;;;;;11.63;7.53;;;16.90;99.90;;;;;;5009440;28;20211;-49
2021/08/12 03:36:07;;;;;;;9.90;6.83;;;17.00;99.90;;;;;;5008617;28;20207;-49
2021/08/12 03:38:34;;;;;;;11.10;7.60;;;17.00;99.90;;;;;;5009115;28;20307;-48
2021/08/12 03:41:01;;;;;;;10.80;6.70;;;16.90;99.90;;;;;;5008395;28;20242;-49
2021/08/12 03:43:28;;;;;;;11.93;7.43;;;17.00;99.90;;;;;;5008372;28;20239;-49
2021/08/12 03:45:55;;;;;;;10.47;7.60;;;17.00;99.90;;;;;;5007956;28;20291;-48
2021/08/12 03:48:22;;;;;;;10.60;7.57;;;17.00;99.90;;;;;;5009185;28;20671;-49
2021/08/12 03:50:48;;;;;;;9.20;7.20;;;17.00;99.90;;;;;;5008052;28;20311;-49
2021/08/12 03:53:15;;;;;;;9.37;7.13;;;16.90;99.90;;;;;;5008706;28;20290;-49
2021/08/12 03:55:42;;;;;;;12.30;7.63;;;16.90;99.90;;;;;;5009063;28;20242;-49
2021/08/12 03:58:09;;;;;;;10.90;7.43;;;16.80;99.90;;;;;;5009244;28;20715;-49
2021/08/12 04:00:36;;;;;;;10.27;7.13;;;16.70;99.90;;;;;;5008903;28;20220;-48
2021/08/12 04:03:03;;;;;;;11.10;8.23;;;16.70;99.90;;;;;;5008290;28;20221;-49
2021/08/12 04:05:29;;;;;;;9.53;6.80;;;16.70;99.90;;;;;;5008388;28;20256;-48
2021/08/12 04:07:56;;;;;;;16.23;7.27;;;16.70;99.90;;;;;;5008597;28;20255;-48
2021/08/12 04:10:23;;;;;;;10.63;6.87;;;16.80;99.90;;;;;;5008770;28;20244;-49
2021/08/12 04:12:50;;;;;;;11.97;7.20;;;16.90;99.90;;;;;;5008400;28;20231;-49
2021/08/12 04:15:17;;;;;;;11.53;7.17;;;16.80;99.90;;;;;;5008825;28;20631;-49
2021/08/12 04:17:44;;;;;;;11.77;7.77;;;16.80;99.90;;;;;;5007800;28;20232;-49
2021/08/12 04:20:11;;;;;;;8.97;6.97;;;16.70;99.90;;;;;;5007354;28;20299;-49
2021/08/12 04:22:38;;;;;;;12.13;7.60;;;16.70;99.90;;;;;;5008206;28;20285;-48
2021/08/12 04:25:05;;;;;;;13.40;8.30;;;16.70;99.90;;;;;;5007783;28;20306;-49
2021/08/12 04:27:32;;;;;;;14.77;7.77;;;16.60;99.90;;;;;;5008292;28;20711;-48
2021/08/12 04:29:59;;;;;;;10.37;7.33;;;16.60;99.90;;;;;;5007840;28;20302;-49
2021/08/12 04:32:25;;;;;;;9.53;7.27;;;16.60;99.90;;;;;;5007668;28;20228;-48
2021/08/12 04:34:52;;;;;;;10.57;8.20;;;16.60;99.90;;;;;;5007387;28;20610;-49
2021/08/12 04:37:19;;;;;;;10.40;7.87;;;16.60;99.90;;;;;;5008305;28;20286;-49
2021/08/12 04:39:46;;;;;;;10.73;7.83;;;16.60;99.90;;;;;;5006833;28;20244;-49
2021/08/12 04:42:13;;;;;;;10.97;8.30;;;16.60;99.90;;;;;;5007667;28;20212;-49
2021/08/12 04:44:40;;;;;;;12.73;8.67;;;16.60;99.90;;;;;;5007244;28;20576;-48
2021/08/12 04:47:06;;;;;;;12.83;8.00;;;16.60;99.90;;;;;;5007477;28;20664;-49
2021/08/12 04:49:33;;;;;;;11.80;8.00;;;16.60;99.90;;;;;;5007260;28;20223;-49
2021/08/12 04:52:00;;;;;;;10.70;8.20;;;16.60;99.90;;;;;;5022117;28;20299;-49
2021/08/12 04:54:27;;;;;;;12.57;7.87;;;16.70;99.90;;;;;;5007200;28;20204;-48
2021/08/12 04:56:54;;;;;;;13.73;8.20;;;16.70;99.90;;;;;;5010863;28;20216;-48
2021/08/12 04:59:20;;;;;;;11.57;8.23;;;16.70;99.90;;;;;;5012074;28;20245;-48
2021/08/12 05:01:47;;;;;;;11.67;8.47;;;16.70;99.90;;;;;;5011856;28;20302;-48
2021/08/12 05:04:15;;;;;;;9.87;7.30;;;16.70;99.90;;;;;;5010826;28;20335;-48
2021/08/12 05:06:41;;;;;;;11.50;8.43;;;16.70;99.90;;;;;;5012198;28;20298;-49
2021/08/12 05:09:08;;;;;;;12.37;8.03;;;16.70;99.90;;;;;;5011377;28;20306;-49
2021/08/12 05:11:35;;;;;;;13.93;7.90;;;16.60;99.90;;;;;;5011470;28;20246;-49
2021/08/12 05:14:02;;;;;;;10.73;7.53;;;16.60;99.90;;;;;;5010683;28;20208;-48
2021/08/12 05:16:28;;;;;;;11.80;7.97;;;16.70;99.90;;;;;;5012007;28;20737;-50
2021/08/12 05:18:55;;;;;;;11.17;8.50;;;16.80;99.90;;;;;;5010974;28;20277;-49
2021/08/12 05:21:22;;;;;;;13.47;8.67;;;16.80;99.90;;;;;;5011458;28;20383;-48
2021/08/12 05:23:49;;;;;;;13.37;9.37;;;16.80;99.90;;;;;;5011561;28;20196;-49
2021/08/12 05:26:16;;;;;;;11.37;8.97;;;16.80;99.90;;;;;;5011720;28;20301;-49
2021/08/12 05:28:42;;;;;;;16.50;9.70;;;16.90;99.90;;;;;;5011183;28;20212;-48
2021/08/12 05:31:09;;;;;;;10.67;8.63;;;16.80;99.90;;;;;;5011380;28;20767;-48
2021/08/12 05:33:36;;;;;;;13.80;9.33;;;16.90;99.90;;;;;;5011138;28;20201;-49
2021/08/12 05:36:04;;;;;;;11.43;8.73;;;17.00;99.90;;;;;;5010818;28;20213;-49
2021/08/12 05:38:31;;;;;;;12.50;8.57;;;17.00;99.90;;;;;;5025378;28;20239;-48
2021/08/12 05:40:58;;;;;;;13.57;9.23;;;17.00;99.90;;;;;;5010472;28;20251;-48
2021/08/12 05:43:26;;;;;;;12.60;8.57;;;17.00;99.90;;;;;;5010262;28;20285;-48
2021/08/12 05:45:54;;;;;;;11.63;9.30;;;17.10;99.90;;;;;;5010246;28;20220;-49
2021/08/12 05:48:21;;;;;;;11.23;9.10;;;17.10;99.90;;;;;;5025162;28;20258;-49
2021/08/12 05:50:48;;;;;;;11.40;8.77;;;17.20;99.90;;;;;;5010125;28;20244;-49
2021/08/12 05:53:17;;;;;;;12.13;9.07;;;17.10;99.90;;;;;;5010860;28;20256;-48
2021/08/12 05:55:44;;;;;;;13.20;8.83;;;17.20;99.90;;;;;;5010384;28;20304;-49
2021/08/12 05:58:11;;;;;;;10.83;8.80;;;17.30;99.90;;;;;;5010377;28;20536;-49
2021/08/12 06:00:38;;;;;;;11.50;9.23;;;17.20;99.90;;;;;;5006799;28;20274;-48
2021/08/12 06:03:11;;;;;;;13.87;9.23;;;17.20;99.90;;;;;;5009507;28;20222;-48
2021/08/12 06:05:39;;;;;;;14.00;8.97;;;17.30;99.90;;;;;;5010427;28;20683;-48
2021/08/12 06:08:08;;;;;;;12.67;9.07;;;17.30;99.90;;;;;;5010690;28;20657;-48
2021/08/12 06:10:35;;;;;;;12.03;8.30;;;17.50;99.90;;;;;;5010659;28;20295;-49
2021/08/12 06:13:03;;;;;;;10.70;8.17;;;17.60;99.90;;;;;;5010481;28;20567;-49
2021/08/12 06:15:30;;;;;;;13.20;8.70;;;17.70;99.90;;;;;;5010962;28;20239;-49
2021/08/12 06:17:57;;;;;;;11.80;8.30;;;17.80;99.90;;;;;;5010584;28;20291;-48
2021/08/12 06:20:24;;;;;;;10.47;8.47;;;17.90;99.90;;;;;;5010276;28;20491;-49
2021/08/12 06:22:52;;;;;;;14.17;8.43;;;17.90;43.00;;;;;;5010748;28;20240;-49
2021/08/12 06:25:21;;;;;;;10.50;8.47;;;17.80;99.90;;;;;;5010389;28;20584;-49
2021/08/12 06:27:48;;;;;;;11.33;8.30;;;17.90;99.90;;;;;;5010395;28;20300;-49
2021/08/12 06:30:15;;;;;;;11.33;8.43;;;18.00;99.90;;;;;;5010153;28;20218;-49
2021/08/12 06:32:45;;;;;;;10.83;8.17;;;18.10;99.90;;;;;;5010051;28;20261;-49
2021/08/12 06:35:12;;;;;;;9.40;7.43;;;18.20;99.90;;;;;;5009878;28;20235;-50
2021/08/12 06:37:46;;;;;;;11.07;7.53;;;18.20;29.00;;;;;;5010642;28;20263;-49
2021/08/12 06:40:18;;;;;;;10.27;7.33;;;18.30;98.80;;;;;;5009539;28;20241;-49
2021/08/12 06:42:46;;;;;;;10.40;7.30;;;18.30;32.90;;;;;;5010027;28;20236;-49
2021/08/12 06:45:18;;;;;;;9.07;6.83;;;18.40;98.80;;;;;;5000389;28;20283;-49
2021/08/12 06:47:48;;;;;;;8.47;6.87;;;18.50;99.90;;;;;;5010409;28;20248;-49
2021/08/12 06:50:18;;;;;;;9.90;6.77;;;18.50;53.50;;;;;;5009565;28;20208;-49
2021/08/12 06:52:45;;;;;;;8.97;6.73;;;18.50;1.00;;;;;;5009518;28;20302;-49
2021/08/12 06:55:13;;;;;;;9.63;6.87;;;18.80;1.00;;;;;;5009796;28;20300;-49
2021/08/12 06:57:40;;;;;;;9.17;7.03;;;18.90;1.00;;;;;;5010318;28;20692;-50
2021/08/12 07:00:08;;;;;;;9.40;7.00;;;18.90;1.00;;;;;;5009787;28;20211;-50
2021/08/12 07:02:35;;;;;;;9.10;7.27;;;18.90;1.00;;;;;;5010393;28;20287;-48
2021/08/12 07:05:03;;;;;;;11.03;6.80;;;19.20;1.00;;;;;;5023737;28;20224;-50
2021/08/12 07:07:29;;;;;;;11.30;6.83;;;19.30;1.00;;;;;;5009820;28;20201;-48
2021/08/12 07:09:56;;;;;;;10.30;7.07;;;19.30;1.00;;;;;;5009914;28;20249;-49
2021/08/12 07:12:23;;;;;;;9.90;6.70;;;19.50;1.00;;;;;;5009984;28;20718;-48
2021/08/12 07:14:49;;;;;;;8.47;6.43;;;19.90;1.00;;;;;;5009377;28;20212;-49
2021/08/12 07:17:16;;;;;;;8.93;6.23;;;19.90;1.00;;;;;;5009939;28;20203;-49
2021/08/12 07:19:43;;;;;;;9.73;6.73;;;19.90;1.00;;;;;;5007953;28;20248;-49
2021/08/12 07:22:10;;;;;;;9.63;6.20;;;20.10;1.00;;;;;;5009527;28;20240;-49
2021/08/12 07:24:37;;;;;;;9.33;6.00;;;20.00;99.90;;;;;;5009228;28;20299;-49
2021/08/12 07:27:04;;;;;;;9.47;6.50;;;20.10;1.00;;;;;;5009142;28;20256;-49
2021/08/12 07:29:31;;;;;;;9.17;6.00;;;20.20;99.90;;;;;;5009744;28;20217;-49
2021/08/12 07:31:57;;;;;;;12.33;6.77;;;20.50;99.90;;;;;;5009820;28;20661;-49
2021/08/12 07:34:24;;;;;;;9.60;6.30;;;20.70;1.00;;;;;;5009089;28;20684;-49
2021/08/12 07:36:51;;;;;;;10.37;7.53;;;20.70;1.00;;;;;;5009844;28;20205;-49
2021/08/12 07:39:18;;;;;;;10.63;7.37;;;20.50;99.90;;;;;;5009113;28;20314;-49
2021/08/12 07:41:45;;;;;;;11.03;7.80;;;20.60;98.30;;;;;;5009298;28;20244;-49
2021/08/12 07:44:13;;;;;;;10.03;7.63;;;20.30;1.00;;;;;;5009161;28;20678;-49
2021/08/12 07:46:41;;;;;;;9.37;6.63;;;20.40;1.00;;;;;;5008657;28;20224;-49
2021/08/12 07:49:08;;;;;;;9.80;6.70;;;20.50;1.00;;;;;;5007197;28;20205;-49
2021/08/12 07:51:35;;;;;;;8.00;6.57;;;20.60;1.00;;;;;;5008649;28;20197;-49
2021/08/12 07:54:01;;;;;;;9.30;6.70;;;20.70;99.90;;;;;;5008965;28;20307;-49
2021/08/12 07:56:28;;;;;;;10.53;6.80;;;21.10;99.90;;;;;;5008862;28;20237;-49
2021/08/12 07:58:55;;;;;;;9.37;6.53;;;21.20;1.00;;;;;;5008805;28;20295;-49
2021/08/12 08:01:22;;;;;;;9.93;5.87;;;21.10;98.00;;;;;;5008924;28;20725;-49
2021/08/12 08:03:49;;;;;;;8.17;6.40;;;21.30;1.00;;;;;;5008405;28;20209;-48
2021/08/12 08:06:16;;;;;;;7.87;6.63;;;21.40;99.90;;;;;;5008184;28;20256;-48
2021/08/12 08:08:43;;;;;;;9.00;6.43;;;21.30;1.00;;;;;;5008120;28;21051;-49
2021/08/12 08:11:11;;;;;;;8.90;6.33;;;21.30;1.00;;;;;;5009220;28;20297;-49
2021/08/12 08:13:37;;;;;;;11.23;5.87;;;21.10;99.90;;;;;;5009948;28;20318;-49
2021/08/12 08:16:04;;;;;;;15.73;7.00;;;21.40;1.00;;;;;;5011301;28;20217;-49
2021/08/12 08:18:32;;;;;;;8.60;6.40;;;21.60;99.90;;;;;;5012229;28;20205;-49
2021/08/12 08:20:59;;;;;;;12.17;5.77;;;21.90;1.00;;;;;;5011970;28;20291;-48
2021/08/12 08:23:25;;;;;;;7.87;5.90;;;22.20;1.00;;;;;;5012491;28;20243;-49
2021/08/12 08:25:52;;;;;;;7.73;6.37;;;22.40;66.70;;;;;;5011339;28;20259;-49
2021/08/12 08:28:19;;;;;;;8.73;5.93;;;22.20;1.00;;;;;;5011418;28;20212;-48
2021/08/12 08:30:46;;;;;;;8.33;6.07;;;22.10;86.60;;;;;;5010047;28;20283;-49
2021/08/12 08:33:13;;;;;;;11.80;6.13;;;22.10;1.00;;;;;;5008846;28;20205;-48
2021/08/12 08:35:39;;;;;;;6.10;5.00;;;22.20;1.00;;;;;;5008374;28;20256;-49
2021/08/12 08:38:06;;;;;;;10.03;5.87;;;22.40;99.90;;;;;;5008953;28;20248;-49
2021/08/12 08:40:35;;;;;;;11.17;4.83;;;22.80;1.00;;;;;;5007926;28;20243;-48
2021/08/12 08:43:04;;;;;;;5.77;4.73;;;23.20;1.00;;;;;;5008047;28;20259;-49
2021/08/12 08:45:31;;;;;;;7.17;4.60;;;23.30;1.00;;;;;;5007593;28;20827;-48
2021/08/12 08:48:01;;;;;;;6.47;5.37;;;23.10;1.00;;;;;;5008550;28;20498;-48
2021/08/12 08:50:32;;;;;;;8.77;5.17;;;23.10;1.00;;;;;;5007250;28;20205;-48
2021/08/12 08:53:00;;;;;;;6.67;5.03;;;23.20;1.00;;;;;;5007573;28;20237;-49
2021/08/12 08:55:27;;;;;;;7.03;5.60;;;23.40;64.30;;;;;;5007496;28;20251;-49
2021/08/12 08:57:55;;;;;;;7.50;5.17;;;23.50;99.90;;;;;;5008100;28;20238;-48
2021/08/12 09:00:23;;;;;;;7.57;4.80;;;23.50;33.60;;;;;;5007463;28;20569;-48
2021/08/12 09:02:51;;;;;;;7.40;5.20;;;23.60;99.90;;;;;;5007122;28;20204;-49
2021/08/12 09:05:19;;;;;;;7.57;4.33;;;23.50;1.00;;;;;;5006739;28;20238;-49
2021/08/12 09:07:47;;;;;;;5.33;4.47;;;23.70;35.50;;;;;;5007501;28;20207;-49
2021/08/12 09:10:16;;;;;;;6.43;4.30;;;24.10;1.00;;;;;;5014445;28;20215;-49
2021/08/12 09:12:45;;;;;;;6.07;4.60;;;24.50;1.00;;;;;;5007486;28;20208;-49
2021/08/12 09:15:13;;;;;;;6.17;4.50;;;24.40;99.90;;;;;;5008199;28;20379;-49
2021/08/12 09:17:40;;;;;;;5.83;3.80;;;24.40;1.00;;;;;;5007430;28;20208;-49
2021/08/12 09:20:12;;;;;;;8.20;4.27;;;24.50;1.00;;;;;;5006939;28;20257;-49
2021/08/12 09:22:53;;;;;;;6.27;4.43;;;24.40;1.00;;;;;;5007802;28;20637;-49
2021/08/12 09:25:47;;;;;;;4.73;4.00;;;24.30;1.00;;;;;;5007639;28;20323;-49
2021/08/12 09:28:27;;;;;;;4.77;3.60;;;24.60;1.00;;;;;;5007534;28;20205;-49
2021/08/12 09:31:00;;;;;;;8.47;3.77;;;24.80;1.00;;;;;;5006141;28;20641;-49
2021/08/12 09:33:39;;;;;;;6.13;3.93;;;24.90;1.00;;;;;;5007786;28;20198;-49
2021/08/12 09:36:26;;;;;;;5.50;3.83;;;25.00;1.00;;;;;;5007266;28;20720;-48
2021/08/12 09:39:11;;;;;;;6.03;4.07;;;25.00;99.90;;;;;;5007234;28;20246;-49
2021/08/12 09:41:38;;;;;;;4.90;3.90;;;25.10;1.00;;;;;;5007539;28;20247;-49
2021/08/12 09:44:05;;;;;;;4.73;3.87;;;24.90;1.00;;;;;;5010443;28;20210;-48
2021/08/12 09:46:34;;;;;;;4.97;3.60;;;24.90;1.00;;;;;;5010810;28;20399;-49
2021/08/12 09:49:02;;;;;;;5.20;3.57;;;24.90;1.00;;;;;;5010470;28;20243;-48
2021/08/12 09:51:33;;;;;;;6.20;4.43;;;24.70;1.00;;;;;;5011047;28;20197;-48
2021/08/12 09:54:04;;;;;;;4.60;3.30;;;24.60;99.90;;;;;;5011495;28;20569;-49
2021/08/12 09:56:31;;;;;;;4.63;4.00;;;24.80;10.20;;;;;;5010508;28;20626;-48
2021/08/12 09:59:06;;;;;;;4.27;3.07;;;24.50;99.90;;;;;;5011060;28;20295;-48
2021/08/12 10:01:33;;;;;;;4.80;3.63;;;24.30;1.00;;;;;;5011034;28;20262;-48
2021/08/12 10:04:27;;;;;;;6.37;3.67;;;24.50;99.90;;;;;;5010418;28;20743;-48
2021/08/12 10:06:54;;;;;;;5.13;3.60;;;24.70;23.20;;;;;;5010292;28;20233;-48
2021/08/12 10:09:21;;;;;;;5.73;4.13;;;24.50;1.00;;;;;;5011003;28;20256;-48
2021/08/12 10:11:48;;;;;;;5.63;3.87;;;24.70;99.90;;;;;;5010333;28;20668;-48
2021/08/12 10:14:14;;;;;;;4.67;3.50;;;24.40;1.00;;;;;;5010694;28;20630;-48
2021/08/12 10:16:42;;;;;;;4.93;3.83;;;24.70;99.90;;;;;;5011262;28;20665;-48
2021/08/12 10:19:12;;;;;;;5.47;4.20;;;24.50;1.00;;;;;;5010157;28;20238;-48
2021/08/12 10:21:40;;;;;;;6.07;3.83;;;24.40;99.90;;;;;;4998662;28;20212;-48
2021/08/12 10:24:08;;;;;;;4.60;3.87;;;24.60;1.00;;;;;;5009923;28;20340;-48
2021/08/12 10:26:36;;;;;;;5.57;3.63;;;24.80;1.00;;;;;;5010989;28;20294;-48
2021/08/12 10:29:12;;;;;;;4.10;2.97;;;25.00;1.00;;;;;;5010096;28;20724;-48
2021/08/12 10:31:43;;;;;;;4.50;3.00;;;24.90;1.00;;;;;;5024959;28;20712;-48
2021/08/12 10:34:12;;;;;;;4.10;3.40;;;25.10;1.00;;;;;;5009645;28;20262;-48
2021/08/12 10:36:39;;;;;;;4.30;3.37;;;25.10;1.00;;;;;;5010126;28;20216;-49
2021/08/12 10:39:07;;;;;;;4.63;3.47;;;25.10;1.00;;;;;;5009994;28;20295;-48
2021/08/12 10:41:40;;;;;;;6.40;3.10;;;25.30;1.00;;;;;;5010627;28;20237;-48
2021/08/12 10:44:07;;;;;;;6.53;3.30;;;25.80;1.00;;;;;;5009983;28;20243;-48
2021/08/12 10:46:38;;;;;;;4.27;3.50;;;25.80;1.00;;;;;;5009921;28;20245;-49
2021/08/12 10:49:24;;;;;;;4.00;3.37;;;25.70;1.00;;;;;;5009306;28;20206;-48
2021/08/12 10:52:03;;;;;;;4.57;3.40;;;25.50;99.90;;;;;;5009320;28;20229;-48
2021/08/12 10:54:32;;;;;;;6.80;3.20;;;25.50;1.00;;;;;;5009296;28;20236;-48
2021/08/12 10:57:19;;;;;;;5.00;2.77;;;25.40;1.00;;;;;;5009750;28;20231;-49
2021/08/12 10:59:48;;;;;;;3.93;3.30;;;25.40;82.60;;;;;;5009482;28;20278;-48
2021/08/12 11:02:27;;;;;;;3.77;2.90;;;25.30;99.90;;;;;;5009417;28;20320;-48
2021/08/12 11:05:04;;;;;;;4.50;3.10;;;25.40;1.00;;;;;;5009144;28;20242;-48
2021/08/12 11:07:40;;;;;;;4.53;3.30;;;25.40;1.00;;;;;;5010282;28;20227;-49
2021/08/12 11:10:10;;;;;;;5.80;3.60;;;25.70;99.90;;;;;;5008961;28;20319;-48
2021/08/12 11:13:00;;;;;;;3.93;3.13;;;25.60;99.90;;;;;;5009600;28;20193;-48
2021/08/12 11:15:39;;;;;;;3.27;2.60;;;25.90;1.00;;;;;;5009167;28;20229;-48
2021/08/12 11:18:11;;;;;;;5.83;3.40;;;26.40;1.00;;;;;;5023625;28;20201;-48
2021/08/12 11:20:40;;;;;;;5.00;3.30;;;26.40;1.00;;;;;;5008637;28;20235;-50
2021/08/12 11:23:19;;;;;;;6.17;3.23;;;26.30;1.00;;;;;;5009260;28;20232;-48
2021/08/12 11:25:55;;;;;;;5.57;3.13;;;26.20;99.90;;;;;;5008923;28;20225;-51
2021/08/12 11:28:40;;;;;;;4.73;3.57;;;25.90;4.10;;;;;;5008776;28;20228;-48
2021/08/12 11:31:29;;;;;;;4.83;3.13;;;25.80;1.00;;;;;;5008504;28;20221;-48
2021/08/12 11:34:00;;;;;;;3.83;3.40;;;25.60;99.90;;;;;;4993582;28;20734;-47
2021/08/12 11:36:34;;;;;;;6.63;3.83;;;25.50;99.90;;;;;;5009001;28;20673;-48
2021/08/12 11:39:07;;;;;;;4.20;3.37;;;25.50;1.00;;;;;;5008709;28;20209;-48
2021/08/12 11:41:42;;;;;;;3.77;3.10;;;25.50;99.90;;;;;;5008591;28;20552;-49
2021/08/12 11:44:16;;;;;;;4.57;3.37;;;25.70;99.90;;;;;;5008091;28;20278;-49
2021/08/12 11:46:44;;;;;;;4.23;3.23;;;25.50;1.00;;;;;;5008295;28;20224;-48
2021/08/12 11:49:18;;;;;;;4.93;3.40;;;25.60;99.90;;;;;;5008471;28;21156;-49
2021/08/12 11:51:46;;;;;;;4.87;3.17;;;25.80;1.00;;;;;;5008477;28;20222;-49
2021/08/12 11:54:24;;;;;;;6.40;3.33;;;25.70;99.90;;;;;;5008812;28;20280;-49
2021/08/12 11:56:51;;;;;;;5.37;3.40;;;26.00;1.00;;;;;;5008301;28;20661;-49
2021/08/12 11:59:25;;;;;;;4.60;3.27;;;25.70;1.00;;;;;;5008649;28;20232;-48
2021/08/12 12:02:04;;;;;;;4.43;3.67;;;25.40;1.00;;;;;;5008030;28;20319;-48
2021/08/12 12:04:32;;;;;;;4.47;3.67;;;25.20;1.00;;;;;;5008593;28;20215;-49
2021/08/12 12:06:58;;;;;;;5.37;3.77;;;25.00;1.00;;;;;;5008072;28;20718;-48
2021/08/12 12:09:27;;;;;;;6.43;4.03;;;24.90;1.00;;;;;;5008709;28;20266;-49
2021/08/12 12:12:11;;;;;;;4.20;3.60;;;24.90;99.90;;;;;;5008587;28;20204;-49
2021/08/12 12:14:43;;;;;;;5.20;3.40;;;25.00;1.00;;;;;;5008304;28;20516;-49
2021/08/12 12:17:13;;;;;;;4.13;3.23;;;25.20;99.90;;;;;;5023145;28;20288;-48
2021/08/12 12:20:08;;;;;;;4.53;3.93;;;25.20;96.50;;;;;;5007643;28;20265;-49
2021/08/12 12:22:37;;;;;;;4.27;3.30;;;25.20;1.00;;;;;;5008481;28;20323;-49
2021/08/12 12:25:07;;;;;;;5.00;3.33;;;25.00;1.00;;;;;;5008483;28;20233;-50
2021/08/12 12:27:34;;;;;;;7.07;3.60;;;25.00;99.90;;;;;;5007598;28;20332;-48
2021/08/12 12:30:12;;;;;;;4.90;3.30;;;25.10;99.90;;;;;;5008266;28;20213;-49
2021/08/12 12:32:40;;;;;;;5.20;3.20;;;25.00;99.90;;;;;;5008062;28;20282;-49
2021/08/12 12:35:09;;;;;;;5.93;3.53;;;25.20;1.00;;;;;;5007398;28;20312;-49
2021/08/12 12:37:39;;;;;;;4.67;3.40;;;25.00;1.00;;;;;;5007360;28;20296;-49
2021/08/12 12:40:10;;;;;;;4.50;3.07;;;24.90;99.90;;;;;;5007580;28;20266;-49
2021/08/12 12:42:38;;;;;;;4.10;3.47;;;24.90;1.00;;;;;;5007381;28;20214;-48
2021/08/12 12:45:10;;;;;;;4.50;3.60;;;24.90;1.00;;;;;;5007608;28;20264;-49
2021/08/12 12:47:38;;;;;;;4.27;3.70;;;24.90;1.00;;;;;;5007799;28;20225;-49
2021/08/12 12:50:07;;;;;;;7.07;3.13;;;24.90;99.90;;;;;;5006680;28;20267;-48
2021/08/12 12:53:00;;;;;;;4.83;3.57;;;24.80;1.00;;;;;;5007557;28;20666;-49
2021/08/12 12:55:45;;;;;;;4.80;3.70;;;24.80;99.90;;;;;;5007450;28;20296;-49
2021/08/12 12:58:21;;;;;;;7.17;3.90;;;24.90;1.00;;;;;;5007640;28;20229;-49